sensor_id;sensor_type;location;lat;lon;timestamp;P1;durP1;ratioP1;P2;durP2;ratioP2
54599;SDS011;40500;51.084;16.958;2022-09-29T00:02:19;3.40;;;3.10;;
54599;SDS011;40500;51.084;16.958;2022-09-29T00:04:49;4.00;;;3.30;;
54599;SDS011;40500;51.084;16.958;2022-09-29T00:07:20;3.40;;;3.00;;
54599;SDS011;40500;51.084;16.958;2022-09-29T00:09:50;4.70;;;3.30;;
54599;SDS011;40500;51.084;16.958;2022-09-29T00:12:21;7.20;;;4.60;;
54599;SDS011;40500;51.084;16.958;2022-09-29T00:14:51;8.20;;;4.10;;
54599;SDS011;40500;51.084;16.958;2022-09-29T00:17:21;6.40;;;4.50;;
54599;SDS011;40500;51.084;16.958;2022-09-29T00:19:52;6.80;;;4.60;;
54599;SDS011;40500;51.084;16.958;2022-09-29T00:22:22;8.90;;;5.00;;
54599;SDS011;40500;51.084;16.958;2022-09-29T00:24:52;8.00;;;4.70;;
54599;SDS011;40500;51.084;16.958;2022-09-29T00:27:23;6.40;;;4.00;;
54599;SDS011;40500;51.084;16.958;2022-09-29T00:29:53;8.20;;;4.60;;
54599;SDS011;40500;51.084;16.958;2022-09-29T00:32:23;6.30;;;3.90;;
54599;SDS011;40500;51.084;16.958;2022-09-29T00:34:54;5.10;;;3.50;;
54599;SDS011;40500;51.084;16.958;2022-09-29T00:37:24;4.40;;;3.10;;
54599;SDS011;40500;51.084;16.958;2022-09-29T00:39:54;4.20;;;3.00;;
54599;SDS011;40500;51.084;16.958;2022-09-29T00:42:25;4.20;;;2.90;;
54599;SDS011;40500;51.084;16.958;2022-09-29T00:45:04;3.80;;;2.90;;
54599;SDS011;40500;51.084;16.958;2022-09-29T00:47:42;5.90;;;2.60;;
54599;SDS011;40500;51.084;16.958;2022-09-29T00:50:17;3.90;;;2.40;;
54599;SDS011;40500;51.084;16.958;2022-09-29T00:52:51;4.10;;;2.90;;
54599;SDS011;40500;51.084;16.958;2022-09-29T00:55:25;4.90;;;2.60;;
54599;SDS011;40500;51.084;16.958;2022-09-29T00:58:01;2.90;;;2.30;;
54599;SDS011;40500;51.084;16.958;2022-09-29T01:00:34;6.20;;;2.70;;
54599;SDS011;40500;51.084;16.958;2022-09-29T01:03:06;5.50;;;3.30;;
54599;SDS011;40500;51.084;16.958;2022-09-29T01:05:42;3.60;;;2.40;;
54599;SDS011;40500;51.084;16.958;2022-09-29T01:08:15;5.70;;;3.10;;
54599;SDS011;40500;51.084;16.958;2022-09-29T01:10:50;7.70;;;3.50;;
54599;SDS011;40500;51.084;16.958;2022-09-29T01:13:21;5.70;;;3.70;;
54599;SDS011;40500;51.084;16.958;2022-09-29T01:15:52;6.40;;;3.70;;
54599;SDS011;40500;51.084;16.958;2022-09-29T01:18:23;5.40;;;3.70;;
54599;SDS011;40500;51.084;16.958;2022-09-29T01:20:55;6.70;;;4.40;;
54599;SDS011;40500;51.084;16.958;2022-09-29T01:29:51;7.90;;;4.40;;
54599;SDS011;40500;51.084;16.958;2022-09-29T01:32:31;5.80;;;4.50;;
54599;SDS011;40500;51.084;16.958;2022-09-29T01:35:18;3.20;;;2.80;;
54599;SDS011;40500;51.084;16.958;2022-09-29T01:37:56;6.10;;;3.90;;
54599;SDS011;40500;51.084;16.958;2022-09-29T01:40:37;7.60;;;4.00;;
54599;SDS011;40500;51.084;16.958;2022-09-29T01:43:14;5.40;;;3.80;;
54599;SDS011;40500;51.084;16.958;2022-09-29T01:45:49;4.20;;;3.30;;
54599;SDS011;40500;51.084;16.958;2022-09-29T01:48:27;5.70;;;3.30;;
54599;SDS011;40500;51.084;16.958;2022-09-29T01:51:02;8.50;;;5.10;;
54599;SDS011;40500;51.084;16.958;2022-09-29T01:53:39;5.00;;;3.40;;
54599;SDS011;40500;51.084;16.958;2022-09-29T01:56:15;5.20;;;3.80;;
54599;SDS011;40500;51.084;16.958;2022-09-29T01:58:50;3.90;;;3.20;;
54599;SDS011;40500;51.084;16.958;2022-09-29T02:01:24;6.00;;;4.00;;
54599;SDS011;40500;51.084;16.958;2022-09-29T02:04:01;4.50;;;3.40;;
54599;SDS011;40500;51.084;16.958;2022-09-29T02:06:36;6.60;;;3.30;;
54599;SDS011;40500;51.084;16.958;2022-09-29T02:09:13;8.20;;;3.30;;
54599;SDS011;40500;51.084;16.958;2022-09-29T02:11:47;4.70;;;3.60;;
54599;SDS011;40500;51.084;16.958;2022-09-29T02:14:20;5.70;;;3.60;;
54599;SDS011;40500;51.084;16.958;2022-09-29T02:16:53;4.90;;;3.40;;
54599;SDS011;40500;51.084;16.958;2022-09-29T02:19:28;4.10;;;3.20;;
54599;SDS011;40500;51.084;16.958;2022-09-29T02:22:00;6.00;;;3.70;;
54599;SDS011;40500;51.084;16.958;2022-09-29T02:24:31;4.90;;;3.60;;
54599;SDS011;40500;51.084;16.958;2022-09-29T02:27:01;4.30;;;3.40;;
54599;SDS011;40500;51.084;16.958;2022-09-29T02:29:32;4.10;;;3.30;;
54599;SDS011;40500;51.084;16.958;2022-09-29T02:32:05;4.60;;;3.40;;
54599;SDS011;40500;51.084;16.958;2022-09-29T02:34:37;6.30;;;3.50;;
54599;SDS011;40500;51.084;16.958;2022-09-29T02:37:13;3.60;;;3.20;;
54599;SDS011;40500;51.084;16.958;2022-09-29T02:39:53;4.60;;;2.90;;
54599;SDS011;40500;51.084;16.958;2022-09-29T02:42:35;5.00;;;3.00;;
54599;SDS011;40500;51.084;16.958;2022-09-29T02:45:18;4.80;;;3.10;;
54599;SDS011;40500;51.084;16.958;2022-09-29T02:48:03;3.50;;;3.10;;
54599;SDS011;40500;51.084;16.958;2022-09-29T02:50:43;5.60;;;3.80;;
54599;SDS011;40500;51.084;16.958;2022-09-29T02:53:22;5.00;;;3.50;;
54599;SDS011;40500;51.084;16.958;2022-09-29T02:56:03;4.30;;;3.00;;
54599;SDS011;40500;51.084;16.958;2022-09-29T02:58:41;3.80;;;2.90;;
54599;SDS011;40500;51.084;16.958;2022-09-29T03:01:17;5.10;;;3.10;;
54599;SDS011;40500;51.084;16.958;2022-09-29T03:03:47;5.80;;;4.00;;
54599;SDS011;40500;51.084;16.958;2022-09-29T03:06:18;8.10;;;4.10;;
54599;SDS011;40500;51.084;16.958;2022-09-29T03:08:48;4.30;;;3.20;;
54599;SDS011;40500;51.084;16.958;2022-09-29T03:11:19;6.50;;;3.40;;
54599;SDS011;40500;51.084;16.958;2022-09-29T03:13:49;4.60;;;3.50;;
54599;SDS011;40500;51.084;16.958;2022-09-29T03:16:20;3.90;;;3.30;;
54599;SDS011;40500;51.084;16.958;2022-09-29T03:18:50;3.50;;;3.10;;
54599;SDS011;40500;51.084;16.958;2022-09-29T03:21:21;3.50;;;2.80;;
54599;SDS011;40500;51.084;16.958;2022-09-29T03:23:52;5.00;;;3.40;;
54599;SDS011;40500;51.084;16.958;2022-09-29T03:26:24;3.40;;;3.00;;
54599;SDS011;40500;51.084;16.958;2022-09-29T03:28:56;3.40;;;2.80;;
54599;SDS011;40500;51.084;16.958;2022-09-29T03:31:27;3.70;;;2.80;;
54599;SDS011;40500;51.084;16.958;2022-09-29T03:33:57;3.60;;;3.00;;
54599;SDS011;40500;51.084;16.958;2022-09-29T03:36:28;4.40;;;3.40;;
54599;SDS011;40500;51.084;16.958;2022-09-29T03:38:58;6.80;;;3.70;;
54599;SDS011;40500;51.084;16.958;2022-09-29T03:41:28;6.60;;;4.30;;
54599;SDS011;40500;51.084;16.958;2022-09-29T03:43:59;8.20;;;4.50;;
54599;SDS011;40500;51.084;16.958;2022-09-29T03:46:29;5.90;;;4.50;;
54599;SDS011;40500;51.084;16.958;2022-09-29T03:49:00;8.30;;;5.00;;
54599;SDS011;40500;51.084;16.958;2022-09-29T03:51:30;6.50;;;4.30;;
54599;SDS011;40500;51.084;16.958;2022-09-29T03:54:00;6.50;;;3.90;;
54599;SDS011;40500;51.084;16.958;2022-09-29T03:56:30;10.90;;;4.70;;
54599;SDS011;40500;51.084;16.958;2022-09-29T03:59:02;5.60;;;3.50;;
54599;SDS011;40500;51.084;16.958;2022-09-29T04:01:35;4.60;;;3.40;;
54599;SDS011;40500;51.084;16.958;2022-09-29T04:04:07;4.00;;;3.40;;
54599;SDS011;40500;51.084;16.958;2022-09-29T04:06:39;3.50;;;3.20;;
54599;SDS011;40500;51.084;16.958;2022-09-29T04:09:09;4.20;;;3.10;;
54599;SDS011;40500;51.084;16.958;2022-09-29T04:11:39;6.10;;;3.90;;
54599;SDS011;40500;51.084;16.958;2022-09-29T04:14:10;6.20;;;4.10;;
54599;SDS011;40500;51.084;16.958;2022-09-29T04:16:40;9.70;;;5.60;;
54599;SDS011;40500;51.084;16.958;2022-09-29T04:19:10;8.30;;;5.30;;
54599;SDS011;40500;51.084;16.958;2022-09-29T04:21:41;8.40;;;5.40;;
54599;SDS011;40500;51.084;16.958;2022-09-29T04:24:12;9.20;;;5.20;;
54599;SDS011;40500;51.084;16.958;2022-09-29T04:26:42;8.60;;;5.30;;
54599;SDS011;40500;51.084;16.958;2022-09-29T04:29:13;6.20;;;4.80;;
54599;SDS011;40500;51.084;16.958;2022-09-29T04:31:43;9.60;;;5.10;;
54599;SDS011;40500;51.084;16.958;2022-09-29T04:34:13;6.00;;;4.60;;
54599;SDS011;40500;51.084;16.958;2022-09-29T04:36:45;4.70;;;3.50;;
54599;SDS011;40500;51.084;16.958;2022-09-29T04:39:16;4.00;;;3.00;;
54599;SDS011;40500;51.084;16.958;2022-09-29T04:41:46;5.40;;;3.70;;
54599;SDS011;40500;51.084;16.958;2022-09-29T04:44:17;5.40;;;3.80;;
54599;SDS011;40500;51.084;16.958;2022-09-29T04:46:49;4.70;;;3.60;;
54599;SDS011;40500;51.084;16.958;2022-09-29T04:49:20;3.60;;;3.00;;
54599;SDS011;40500;51.084;16.958;2022-09-29T04:51:50;3.70;;;3.00;;
54599;SDS011;40500;51.084;16.958;2022-09-29T04:54:20;3.70;;;3.20;;
54599;SDS011;40500;51.084;16.958;2022-09-29T04:56:51;5.40;;;3.60;;
54599;SDS011;40500;51.084;16.958;2022-09-29T04:59:21;7.30;;;4.80;;
54599;SDS011;40500;51.084;16.958;2022-09-29T05:01:52;5.80;;;4.50;;
54599;SDS011;40500;51.084;16.958;2022-09-29T05:04:22;3.50;;;2.50;;
54599;SDS011;40500;51.084;16.958;2022-09-29T05:06:53;5.10;;;3.90;;
54599;SDS011;40500;51.084;16.958;2022-09-29T05:09:23;4.50;;;3.40;;
54599;SDS011;40500;51.084;16.958;2022-09-29T05:12:00;7.70;;;3.50;;
54599;SDS011;40500;51.084;16.958;2022-09-29T05:14:30;10.60;;;4.40;;
54599;SDS011;40500;51.084;16.958;2022-09-29T05:17:01;3.90;;;2.50;;
54599;SDS011;40500;51.084;16.958;2022-09-29T05:19:31;3.50;;;2.80;;
54599;SDS011;40500;51.084;16.958;2022-09-29T05:22:02;4.60;;;3.20;;
54599;SDS011;40500;51.084;16.958;2022-09-29T05:24:33;7.00;;;3.50;;
54599;SDS011;40500;51.084;16.958;2022-09-29T05:27:03;7.90;;;4.00;;
54599;SDS011;40500;51.084;16.958;2022-09-29T05:29:33;4.70;;;3.40;;
54599;SDS011;40500;51.084;16.958;2022-09-29T05:32:04;4.80;;;4.10;;
54599;SDS011;40500;51.084;16.958;2022-09-29T05:34:34;8.90;;;5.60;;
54599;SDS011;40500;51.084;16.958;2022-09-29T05:37:04;7.60;;;5.70;;
54599;SDS011;40500;51.084;16.958;2022-09-29T05:39:35;11.50;;;6.90;;
54599;SDS011;40500;51.084;16.958;2022-09-29T05:42:08;6.60;;;4.70;;
54599;SDS011;40500;51.084;16.958;2022-09-29T05:44:39;6.10;;;4.10;;
54599;SDS011;40500;51.084;16.958;2022-09-29T05:47:09;8.10;;;4.60;;
54599;SDS011;40500;51.084;16.958;2022-09-29T05:49:40;7.70;;;5.00;;
54599;SDS011;40500;51.084;16.958;2022-09-29T05:52:10;9.20;;;5.60;;
54599;SDS011;40500;51.084;16.958;2022-09-29T05:54:40;10.90;;;6.30;;
54599;SDS011;40500;51.084;16.958;2022-09-29T05:57:10;8.10;;;6.70;;
54599;SDS011;40500;51.084;16.958;2022-09-29T05:59:41;8.90;;;6.60;;
54599;SDS011;40500;51.084;16.958;2022-09-29T06:02:11;10.80;;;6.50;;
54599;SDS011;40500;51.084;16.958;2022-09-29T06:04:42;10.50;;;7.00;;
54599;SDS011;40500;51.084;16.958;2022-09-29T06:07:12;7.90;;;5.50;;
54599;SDS011;40500;51.084;16.958;2022-09-29T06:09:43;9.90;;;6.20;;
54599;SDS011;40500;51.084;16.958;2022-09-29T06:12:14;11.30;;;6.90;;
54599;SDS011;40500;51.084;16.958;2022-09-29T06:14:48;8.00;;;5.90;;
54599;SDS011;40500;51.084;16.958;2022-09-29T06:17:19;7.30;;;4.40;;
54599;SDS011;40500;51.084;16.958;2022-09-29T06:19:49;6.10;;;5.00;;
54599;SDS011;40500;51.084;16.958;2022-09-29T06:22:20;9.60;;;6.50;;
54599;SDS011;40500;51.084;16.958;2022-09-29T06:24:50;9.30;;;4.90;;
54599;SDS011;40500;51.084;16.958;2022-09-29T06:27:20;6.50;;;5.10;;
54599;SDS011;40500;51.084;16.958;2022-09-29T06:29:51;8.30;;;5.30;;
54599;SDS011;40500;51.084;16.958;2022-09-29T06:32:21;5.80;;;4.50;;
54599;SDS011;40500;51.084;16.958;2022-09-29T06:34:52;6.00;;;4.50;;
54599;SDS011;40500;51.084;16.958;2022-09-29T06:37:40;6.70;;;4.40;;
54599;SDS011;40500;51.084;16.958;2022-09-29T06:40:13;7.90;;;4.90;;
54599;SDS011;40500;51.084;16.958;2022-09-29T06:42:43;7.60;;;4.90;;
54599;SDS011;40500;51.084;16.958;2022-09-29T06:45:13;5.40;;;4.60;;
54599;SDS011;40500;51.084;16.958;2022-09-29T06:47:48;7.90;;;4.90;;
54599;SDS011;40500;51.084;16.958;2022-09-29T06:50:25;5.00;;;4.00;;
54599;SDS011;40500;51.084;16.958;2022-09-29T06:52:55;14.50;;;5.90;;
54599;SDS011;40500;51.084;16.958;2022-09-29T06:55:31;6.00;;;4.50;;
54599;SDS011;40500;51.084;16.958;2022-09-29T06:58:01;5.30;;;4.70;;
54599;SDS011;40500;51.084;16.958;2022-09-29T07:00:32;4.90;;;4.40;;
54599;SDS011;40500;51.084;16.958;2022-09-29T07:03:02;7.10;;;4.40;;
54599;SDS011;40500;51.084;16.958;2022-09-29T07:05:33;7.50;;;4.70;;
54599;SDS011;40500;51.084;16.958;2022-09-29T07:08:04;5.80;;;4.10;;
54599;SDS011;40500;51.084;16.958;2022-09-29T07:10:34;4.60;;;3.80;;
54599;SDS011;40500;51.084;16.958;2022-09-29T07:13:05;10.00;;;4.60;;
54599;SDS011;40500;51.084;16.958;2022-09-29T07:15:35;6.50;;;4.70;;
54599;SDS011;40500;51.084;16.958;2022-09-29T07:18:06;4.30;;;3.80;;
54599;SDS011;40500;51.084;16.958;2022-09-29T07:20:36;10.30;;;4.80;;
54599;SDS011;40500;51.084;16.958;2022-09-29T07:23:07;4.80;;;3.70;;
54599;SDS011;40500;51.084;16.958;2022-09-29T07:25:37;8.70;;;4.10;;
54599;SDS011;40500;51.084;16.958;2022-09-29T07:28:18;5.60;;;3.80;;
54599;SDS011;40500;51.084;16.958;2022-09-29T07:30:58;5.20;;;4.10;;
54599;SDS011;40500;51.084;16.958;2022-09-29T07:33:41;6.50;;;3.80;;
54599;SDS011;40500;51.084;16.958;2022-09-29T07:36:11;5.10;;;4.20;;
54599;SDS011;40500;51.084;16.958;2022-09-29T07:38:45;6.50;;;3.90;;
54599;SDS011;40500;51.084;16.958;2022-09-29T07:41:17;5.90;;;4.30;;
54599;SDS011;40500;51.084;16.958;2022-09-29T07:43:49;5.90;;;4.20;;
54599;SDS011;40500;51.084;16.958;2022-09-29T07:46:20;6.40;;;4.50;;
54599;SDS011;40500;51.084;16.958;2022-09-29T07:48:50;5.50;;;3.60;;
54599;SDS011;40500;51.084;16.958;2022-09-29T07:51:20;5.10;;;3.90;;
54599;SDS011;40500;51.084;16.958;2022-09-29T07:53:51;3.90;;;3.00;;
54599;SDS011;40500;51.084;16.958;2022-09-29T07:56:21;3.50;;;3.20;;
54599;SDS011;40500;51.084;16.958;2022-09-29T07:58:54;2.70;;;2.40;;
54599;SDS011;40500;51.084;16.958;2022-09-29T08:01:24;3.20;;;2.00;;
54599;SDS011;40500;51.084;16.958;2022-09-29T08:03:55;3.50;;;2.30;;
54599;SDS011;40500;51.084;16.958;2022-09-29T08:06:26;3.20;;;2.80;;
54599;SDS011;40500;51.084;16.958;2022-09-29T08:08:58;3.00;;;2.70;;
54599;SDS011;40500;51.084;16.958;2022-09-29T08:11:32;4.40;;;2.40;;
54599;SDS011;40500;51.084;16.958;2022-09-29T08:14:05;3.60;;;2.10;;
54599;SDS011;40500;51.084;16.958;2022-09-29T08:16:36;2.50;;;2.10;;
54599;SDS011;40500;51.084;16.958;2022-09-29T08:19:07;1.60;;;1.50;;
54599;SDS011;40500;51.084;16.958;2022-09-29T08:21:37;2.30;;;2.10;;
54599;SDS011;40500;51.084;16.958;2022-09-29T08:24:08;2.20;;;2.00;;
54599;SDS011;40500;51.084;16.958;2022-09-29T08:26:40;2.00;;;1.80;;
54599;SDS011;40500;51.084;16.958;2022-09-29T08:29:12;1.50;;;1.40;;
54599;SDS011;40500;51.084;16.958;2022-09-29T08:31:44;2.50;;;1.70;;
54599;SDS011;40500;51.084;16.958;2022-09-29T08:34:15;1.60;;;1.50;;
54599;SDS011;40500;51.084;16.958;2022-09-29T08:36:46;1.60;;;1.50;;
54599;SDS011;40500;51.084;16.958;2022-09-29T08:39:17;1.70;;;1.40;;
54599;SDS011;40500;51.084;16.958;2022-09-29T08:41:50;3.50;;;1.60;;
54599;SDS011;40500;51.084;16.958;2022-09-29T08:44:28;2.40;;;1.20;;
54599;SDS011;40500;51.084;16.958;2022-09-29T08:47:14;1.50;;;1.40;;
54599;SDS011;40500;51.084;16.958;2022-09-29T08:49:53;3.00;;;1.50;;
54599;SDS011;40500;51.084;16.958;2022-09-29T08:52:27;1.70;;;1.30;;
54599;SDS011;40500;51.084;16.958;2022-09-29T08:55:21;2.60;;;1.40;;
54599;SDS011;40500;51.084;16.958;2022-09-29T08:58:01;1.50;;;1.40;;
54599;SDS011;40500;51.084;16.958;2022-09-29T09:00:34;3.80;;;1.40;;
54599;SDS011;40500;51.084;16.958;2022-09-29T09:03:22;1.50;;;1.40;;
54599;SDS011;40500;51.084;16.958;2022-09-29T09:06:10;2.30;;;2.10;;
54599;SDS011;40500;51.084;16.958;2022-09-29T09:08:53;1.90;;;1.80;;
54599;SDS011;40500;51.084;16.958;2022-09-29T09:11:49;2.30;;;1.90;;
54599;SDS011;40500;51.084;16.958;2022-09-29T09:14:44;1.90;;;1.70;;
54599;SDS011;40500;51.084;16.958;2022-09-29T09:17:32;2.40;;;1.80;;
54599;SDS011;40500;51.084;16.958;2022-09-29T09:20:23;4.40;;;1.70;;
54599;SDS011;40500;51.084;16.958;2022-09-29T09:23:02;5.00;;;1.50;;
54599;SDS011;40500;51.084;16.958;2022-09-29T09:25:43;3.60;;;1.50;;
54599;SDS011;40500;51.084;16.958;2022-09-29T09:28:17;1.50;;;1.40;;
54599;SDS011;40500;51.084;16.958;2022-09-29T09:30:52;4.90;;;2.00;;
54599;SDS011;40500;51.084;16.958;2022-09-29T09:33:26;2.40;;;1.70;;
54599;SDS011;40500;51.084;16.958;2022-09-29T09:36:04;1.30;;;1.20;;
54599;SDS011;40500;51.084;16.958;2022-09-29T09:38:46;1.30;;;1.10;;
54599;SDS011;40500;51.084;16.958;2022-09-29T09:41:21;4.70;;;1.50;;
54599;SDS011;40500;51.084;16.958;2022-09-29T09:43:55;1.30;;;1.20;;
54599;SDS011;40500;51.084;16.958;2022-09-29T09:49:02;0.80;;;0.80;;
54599;SDS011;40500;51.084;16.958;2022-09-29T09:51:44;0.90;;;0.80;;
54599;SDS011;40500;51.084;16.958;2022-09-29T09:54:22;1.20;;;1.10;;
54599;SDS011;40500;51.084;16.958;2022-09-29T09:57:05;1.90;;;1.30;;
54599;SDS011;40500;51.084;16.958;2022-09-29T09:59:54;1.00;;;1.00;;
54599;SDS011;40500;51.084;16.958;2022-09-29T10:02:32;1.20;;;1.10;;
54599;SDS011;40500;51.084;16.958;2022-09-29T10:05:10;2.60;;;1.00;;
54599;SDS011;40500;51.084;16.958;2022-09-29T10:07:42;2.20;;;1.20;;
54599;SDS011;40500;51.084;16.958;2022-09-29T10:10:17;1.30;;;1.20;;
54599;SDS011;40500;51.084;16.958;2022-09-29T10:12:51;1.40;;;1.30;;
54599;SDS011;40500;51.084;16.958;2022-09-29T10:15:29;1.40;;;1.30;;
54599;SDS011;40500;51.084;16.958;2022-09-29T10:18:05;1.00;;;0.90;;
54599;SDS011;40500;51.084;16.958;2022-09-29T10:20:40;1.50;;;1.10;;
54599;SDS011;40500;51.084;16.958;2022-09-29T10:23:22;1.50;;;1.40;;
54599;SDS011;40500;51.084;16.958;2022-09-29T10:25:58;1.40;;;1.30;;
54599;SDS011;40500;51.084;16.958;2022-09-29T10:28:37;3.80;;;1.20;;
54599;SDS011;40500;51.084;16.958;2022-09-29T10:33:51;1.30;;;1.20;;
54599;SDS011;40500;51.084;16.958;2022-09-29T10:36:26;1.20;;;1.10;;
54599;SDS011;40500;51.084;16.958;2022-09-29T10:38:59;1.10;;;1.00;;
54599;SDS011;40500;51.084;16.958;2022-09-29T10:41:30;1.70;;;1.60;;
54599;SDS011;40500;51.084;16.958;2022-09-29T10:44:24;1.00;;;1.00;;
54599;SDS011;40500;51.084;16.958;2022-09-29T10:47:00;4.10;;;3.00;;
54599;SDS011;40500;51.084;16.958;2022-09-29T10:49:42;2.50;;;2.00;;
54599;SDS011;40500;51.084;16.958;2022-09-29T10:52:20;2.70;;;1.90;;
54599;SDS011;40500;51.084;16.958;2022-09-29T10:54:54;1.40;;;1.30;;
54599;SDS011;40500;51.084;16.958;2022-09-29T10:57:28;1.40;;;1.30;;
54599;SDS011;40500;51.084;16.958;2022-09-29T11:00:01;1.40;;;1.30;;
54599;SDS011;40500;51.084;16.958;2022-09-29T11:02:35;1.00;;;0.90;;
54599;SDS011;40500;51.084;16.958;2022-09-29T11:05:15;1.10;;;1.10;;
54599;SDS011;40500;51.084;16.958;2022-09-29T11:07:47;1.20;;;1.10;;
54599;SDS011;40500;51.084;16.958;2022-09-29T11:10:30;1.10;;;1.00;;
54599;SDS011;40500;51.084;16.958;2022-09-29T11:13:14;1.20;;;1.10;;
54599;SDS011;40500;51.084;16.958;2022-09-29T11:16:13;1.20;;;1.10;;
54599;SDS011;40500;51.084;16.958;2022-09-29T11:18:47;1.60;;;1.30;;
54599;SDS011;40500;51.084;16.958;2022-09-29T11:21:40;1.50;;;1.40;;
54599;SDS011;40500;51.084;16.958;2022-09-29T11:24:22;2.10;;;1.50;;
54599;SDS011;40500;51.084;16.958;2022-09-29T11:27:05;1.40;;;1.30;;
54599;SDS011;40500;51.084;16.958;2022-09-29T11:29:49;6.70;;;1.50;;
54599;SDS011;40500;51.084;16.958;2022-09-29T11:32:33;1.30;;;1.20;;
54599;SDS011;40500;51.084;16.958;2022-09-29T11:35:20;1.20;;;1.10;;
54599;SDS011;40500;51.084;16.958;2022-09-29T11:38:11;1.40;;;1.20;;
54599;SDS011;40500;51.084;16.958;2022-09-29T11:40:56;1.30;;;1.10;;
54599;SDS011;40500;51.084;16.958;2022-09-29T11:43:43;1.10;;;1.00;;
54599;SDS011;40500;51.084;16.958;2022-09-29T11:46:23;1.80;;;1.20;;
54599;SDS011;40500;51.084;16.958;2022-09-29T11:49:11;1.20;;;1.20;;
54599;SDS011;40500;51.084;16.958;2022-09-29T11:51:54;1.30;;;1.20;;
54599;SDS011;40500;51.084;16.958;2022-09-29T11:54:41;1.30;;;1.10;;
54599;SDS011;40500;51.084;16.958;2022-09-29T11:57:32;2.10;;;1.10;;
54599;SDS011;40500;51.084;16.958;2022-09-29T12:00:13;2.60;;;1.10;;
54599;SDS011;40500;51.084;16.958;2022-09-29T12:05:48;0.90;;;0.90;;
54599;SDS011;40500;51.084;16.958;2022-09-29T12:08:36;2.30;;;1.10;;
54599;SDS011;40500;51.084;16.958;2022-09-29T12:11:19;1.70;;;1.40;;
54599;SDS011;40500;51.084;16.958;2022-09-29T12:14:21;2.40;;;1.10;;
54599;SDS011;40500;51.084;16.958;2022-09-29T12:17:08;2.50;;;1.40;;
54599;SDS011;40500;51.084;16.958;2022-09-29T12:19:43;2.30;;;1.80;;
54599;SDS011;40500;51.084;16.958;2022-09-29T12:22:18;2.90;;;1.30;;
54599;SDS011;40500;51.084;16.958;2022-09-29T12:24:49;1.20;;;1.10;;
54599;SDS011;40500;51.084;16.958;2022-09-29T12:27:22;1.00;;;1.00;;
54599;SDS011;40500;51.084;16.958;2022-09-29T12:29:55;2.20;;;1.30;;
54599;SDS011;40500;51.084;16.958;2022-09-29T12:32:30;1.20;;;1.10;;
54599;SDS011;40500;51.084;16.958;2022-09-29T12:35:05;1.10;;;1.00;;
54599;SDS011;40500;51.084;16.958;2022-09-29T12:37:44;1.30;;;1.20;;
54599;SDS011;40500;51.084;16.958;2022-09-29T12:40:21;1.00;;;1.00;;
54599;SDS011;40500;51.084;16.958;2022-09-29T12:43:02;1.00;;;1.00;;
54599;SDS011;40500;51.084;16.958;2022-09-29T12:45:42;0.90;;;0.90;;
54599;SDS011;40500;51.084;16.958;2022-09-29T12:51:15;2.80;;;0.80;;
54599;SDS011;40500;51.084;16.958;2022-09-29T12:53:54;0.80;;;0.80;;
54599;SDS011;40500;51.084;16.958;2022-09-29T12:56:35;0.90;;;0.90;;
54599;SDS011;40500;51.084;16.958;2022-09-29T12:59:09;2.00;;;0.80;;
54599;SDS011;40500;51.084;16.958;2022-09-29T13:01:47;1.00;;;0.90;;
54599;SDS011;40500;51.084;16.958;2022-09-29T13:04:32;1.20;;;0.80;;
54599;SDS011;40500;51.084;16.958;2022-09-29T13:10:37;0.60;;;0.60;;
54599;SDS011;40500;51.084;16.958;2022-09-29T13:19:37;1.10;;;0.80;;
54599;SDS011;40500;51.084;16.958;2022-09-29T13:25:31;2.00;;;1.00;;
54599;SDS011;40500;51.084;16.958;2022-09-29T13:28:20;1.70;;;1.00;;
54599;SDS011;40500;51.084;16.958;2022-09-29T13:30:59;2.40;;;0.90;;
54599;SDS011;40500;51.084;16.958;2022-09-29T13:33:33;1.90;;;1.20;;
54599;SDS011;40500;51.084;16.958;2022-09-29T13:36:03;1.20;;;0.90;;
54599;SDS011;40500;51.084;16.958;2022-09-29T13:38:36;0.80;;;0.70;;
54599;SDS011;40500;51.084;16.958;2022-09-29T13:41:16;1.30;;;0.80;;
54599;SDS011;40500;51.084;16.958;2022-09-29T13:44:18;0.80;;;0.80;;
54599;SDS011;40500;51.084;16.958;2022-09-29T13:46:51;1.00;;;1.00;;
54599;SDS011;40500;51.084;16.958;2022-09-29T13:49:24;0.90;;;0.90;;
54599;SDS011;40500;51.084;16.958;2022-09-29T13:51:57;1.40;;;1.00;;
54599;SDS011;40500;51.084;16.958;2022-09-29T14:00:14;0.70;;;0.70;;
54599;SDS011;40500;51.084;16.958;2022-09-29T14:02:47;1.00;;;0.90;;
54599;SDS011;40500;51.084;16.958;2022-09-29T14:08:52;1.30;;;0.70;;
54599;SDS011;40500;51.084;16.958;2022-09-29T14:11:30;2.90;;;0.70;;
54599;SDS011;40500;51.084;16.958;2022-09-29T14:14:06;2.00;;;0.80;;
54599;SDS011;40500;51.084;16.958;2022-09-29T14:16:44;2.50;;;0.90;;
54599;SDS011;40500;51.084;16.958;2022-09-29T14:19:25;0.80;;;0.70;;
54599;SDS011;40500;51.084;16.958;2022-09-29T14:25:27;0.70;;;0.70;;
54599;SDS011;40500;51.084;16.958;2022-09-29T14:28:12;2.70;;;1.00;;
54599;SDS011;40500;51.084;16.958;2022-09-29T14:30:46;7.00;;;1.20;;
54599;SDS011;40500;51.084;16.958;2022-09-29T14:33:20;1.30;;;1.10;;
54599;SDS011;40500;51.084;16.958;2022-09-29T14:36:02;1.20;;;1.00;;
54599;SDS011;40500;51.084;16.958;2022-09-29T14:38:38;1.00;;;0.90;;
54599;SDS011;40500;51.084;16.958;2022-09-29T14:41:25;1.10;;;0.80;;
54599;SDS011;40500;51.084;16.958;2022-09-29T14:44:04;1.00;;;0.90;;
54599;SDS011;40500;51.084;16.958;2022-09-29T14:49:56;0.80;;;0.60;;
54599;SDS011;40500;51.084;16.958;2022-09-29T14:53:05;0.80;;;0.80;;
54599;SDS011;40500;51.084;16.958;2022-09-29T14:55:49;2.10;;;0.80;;
54599;SDS011;40500;51.084;16.958;2022-09-29T14:58:32;2.20;;;0.90;;
54599;SDS011;40500;51.084;16.958;2022-09-29T15:01:26;1.80;;;1.00;;
54599;SDS011;40500;51.084;16.958;2022-09-29T15:04:03;1.50;;;1.00;;
54599;SDS011;40500;51.084;16.958;2022-09-29T15:06:45;0.80;;;0.80;;
54599;SDS011;40500;51.084;16.958;2022-09-29T15:09:18;2.50;;;1.10;;
54599;SDS011;40500;51.084;16.958;2022-09-29T15:11:50;1.40;;;1.00;;
54599;SDS011;40500;51.084;16.958;2022-09-29T15:14:23;2.30;;;1.50;;
54599;SDS011;40500;51.084;16.958;2022-09-29T15:17:00;2.00;;;1.60;;
54599;SDS011;40500;51.084;16.958;2022-09-29T15:19:46;2.00;;;1.20;;
54599;SDS011;40500;51.084;16.958;2022-09-29T15:22:31;3.10;;;1.30;;
54599;SDS011;40500;51.084;16.958;2022-09-29T15:25:17;1.70;;;1.20;;
54599;SDS011;40500;51.084;16.958;2022-09-29T15:27:57;2.10;;;1.40;;
54599;SDS011;40500;51.084;16.958;2022-09-29T15:30:30;1.60;;;1.30;;
54599;SDS011;40500;51.084;16.958;2022-09-29T15:33:08;3.10;;;1.30;;
54599;SDS011;40500;51.084;16.958;2022-09-29T15:35:47;1.40;;;1.20;;
54599;SDS011;40500;51.084;16.958;2022-09-29T15:38:30;4.30;;;1.40;;
54599;SDS011;40500;51.084;16.958;2022-09-29T15:41:12;1.30;;;1.20;;
54599;SDS011;40500;51.084;16.958;2022-09-29T15:43:51;1.90;;;1.50;;
54599;SDS011;40500;51.084;16.958;2022-09-29T15:46:25;1.20;;;1.10;;
54599;SDS011;40500;51.084;16.958;2022-09-29T15:49:13;2.60;;;1.10;;
54599;SDS011;40500;51.084;16.958;2022-09-29T15:51:53;2.00;;;1.20;;
54599;SDS011;40500;51.084;16.958;2022-09-29T15:54:27;1.90;;;1.30;;
54599;SDS011;40500;51.084;16.958;2022-09-29T15:57:02;2.10;;;1.40;;
54599;SDS011;40500;51.084;16.958;2022-09-29T15:59:51;3.50;;;1.10;;
54599;SDS011;40500;51.084;16.958;2022-09-29T16:02:24;1.60;;;1.40;;
54599;SDS011;40500;51.084;16.958;2022-09-29T16:04:59;1.30;;;1.10;;
54599;SDS011;40500;51.084;16.958;2022-09-29T16:07:33;1.50;;;1.10;;
54599;SDS011;40500;51.084;16.958;2022-09-29T16:10:10;3.20;;;1.00;;